sensor_id;sensor_type;location;lat;lon;timestamp;temperature;humidity
66928;DHT22;59882;45.624;11.698;2023-05-02T00:01:54;14.30;82.40
66928;DHT22;59882;45.624;11.698;2023-05-02T00:04:20;14.20;81.80
66928;DHT22;59882;45.624;11.698;2023-05-02T00:06:45;14.30;81.90
66928;DHT22;59882;45.624;11.698;2023-05-02T00:09:11;14.30;81.60
66928;DHT22;59882;45.624;11.698;2023-05-02T00:11:37;14.30;81.40
66928;DHT22;59882;45.624;11.698;2023-05-02T00:14:03;14.30;81.50
66928;DHT22;59882;45.624;11.698;2023-05-02T00:16:28;14.30;81.60
66928;DHT22;59882;45.624;11.698;2023-05-02T00:18:54;14.40;81.60
66928;DHT22;59882;45.624;11.698;2023-05-02T00:21:20;14.40;81.40
66928;DHT22;59882;45.624;11.698;2023-05-02T00:23:46;14.40;81.50
66928;DHT22;59882;45.624;11.698;2023-05-02T00:26:12;14.40;81.40
66928;DHT22;59882;45.624;11.698;2023-05-02T00:28:37;14.40;81.40
66928;DHT22;59882;45.624;11.698;2023-05-02T00:31:03;14.40;81.70
66928;DHT22;59882;45.624;11.698;2023-05-02T00:33:29;14.40;81.40
66928;DHT22;59882;45.624;11.698;2023-05-02T00:35:55;14.40;81.20
66928;DHT22;59882;45.624;11.698;2023-05-02T00:38:20;14.30;81.10
66928;DHT22;59882;45.624;11.698;2023-05-02T00:40:48;14.30;81.50
66928;DHT22;59882;45.624;11.698;2023-05-02T00:43:14;14.30;81.50
66928;DHT22;59882;45.624;11.698;2023-05-02T00:45:41;14.20;81.40
66928;DHT22;59882;45.624;11.698;2023-05-02T00:48:08;14.20;81.10
66928;DHT22;59882;45.624;11.698;2023-05-02T00:50:36;14.20;81.30
66928;DHT22;59882;45.624;11.698;2023-05-02T00:53:03;14.20;81.20
66928;DHT22;59882;45.624;11.698;2023-05-02T00:55:30;14.20;81.50
66928;DHT22;59882;45.624;11.698;2023-05-02T00:57:57;14.10;81.60
66928;DHT22;59882;45.624;11.698;2023-05-02T01:00:29;14.10;82.20
66928;DHT22;59882;45.624;11.698;2023-05-02T01:03:09;14.10;82.40
66928;DHT22;59882;45.624;11.698;2023-05-02T01:08:42;13.90;82.70
66928;DHT22;59882;45.624;11.698;2023-05-02T01:11:15;13.90;83.00
66928;DHT22;59882;45.624;11.698;2023-05-02T01:13:42;13.90;83.10
66928;DHT22;59882;45.624;11.698;2023-05-02T01:16:11;13.80;83.00
66928;DHT22;59882;45.624;11.698;2023-05-02T01:18:41;13.80;83.00
66928;DHT22;59882;45.624;11.698;2023-05-02T01:21:09;13.80;83.00
66928;DHT22;59882;45.624;11.698;2023-05-02T01:23:45;13.80;83.50
66928;DHT22;59882;45.624;11.698;2023-05-02T01:29:05;13.80;83.50
66928;DHT22;59882;45.624;11.698;2023-05-02T01:31:39;13.80;83.00
66928;DHT22;59882;45.624;11.698;2023-05-02T01:34:08;13.80;83.00
66928;DHT22;59882;45.624;11.698;2023-05-02T01:36:35;13.80;83.10
66928;DHT22;59882;45.624;11.698;2023-05-02T01:39:03;13.80;82.60
66928;DHT22;59882;45.624;11.698;2023-05-02T01:41:32;13.90;82.70
66928;DHT22;59882;45.624;11.698;2023-05-02T01:44:01;13.90;83.10
66928;DHT22;59882;45.624;11.698;2023-05-02T01:46:34;13.90;82.80
66928;DHT22;59882;45.624;11.698;2023-05-02T01:49:05;13.90;82.90
66928;DHT22;59882;45.624;11.698;2023-05-02T01:51:33;13.90;82.90
66928;DHT22;59882;45.624;11.698;2023-05-02T01:54:02;13.90;83.10
66928;DHT22;59882;45.624;11.698;2023-05-02T01:56:31;13.90;82.80
66928;DHT22;59882;45.624;11.698;2023-05-02T01:58:58;13.90;82.70
66928;DHT22;59882;45.624;11.698;2023-05-02T02:01:26;13.90;82.90
66928;DHT22;59882;45.624;11.698;2023-05-02T02:03:57;13.90;82.90
66928;DHT22;59882;45.624;11.698;2023-05-02T02:06:25;13.90;83.10
66928;DHT22;59882;45.624;11.698;2023-05-02T02:08:51;13.90;83.30
66928;DHT22;59882;45.624;11.698;2023-05-02T02:11:23;13.90;83.30
66928;DHT22;59882;45.624;11.698;2023-05-02T02:13:57;13.90;83.40
66928;DHT22;59882;45.624;11.698;2023-05-02T02:16:29;13.90;83.50
66928;DHT22;59882;45.624;11.698;2023-05-02T02:18:56;13.90;83.50
66928;DHT22;59882;45.624;11.698;2023-05-02T02:21:24;13.90;83.20
66928;DHT22;59882;45.624;11.698;2023-05-02T02:23:53;13.90;83.10
66928;DHT22;59882;45.624;11.698;2023-05-02T02:26:20;13.90;83.00
66928;DHT22;59882;45.624;11.698;2023-05-02T02:28:47;13.90;82.90
66928;DHT22;59882;45.624;11.698;2023-05-02T02:31:12;13.90;82.90
66928;DHT22;59882;45.624;11.698;2023-05-02T02:33:39;13.90;83.20
66928;DHT22;59882;45.624;11.698;2023-05-02T02:36:11;13.90;83.20
66928;DHT22;59882;45.624;11.698;2023-05-02T02:38:45;13.90;82.90
66928;DHT22;59882;45.624;11.698;2023-05-02T02:41:21;13.90;83.10
66928;DHT22;59882;45.624;11.698;2023-05-02T02:49:31;13.90;83.10
66928;DHT22;59882;45.624;11.698;2023-05-02T02:52:09;13.90;83.20
66928;DHT22;59882;45.624;11.698;2023-05-02T02:54:46;13.90;83.00
66928;DHT22;59882;45.624;11.698;2023-05-02T03:00:21;13.90;83.40
66928;DHT22;59882;45.624;11.698;2023-05-02T03:02:49;13.90;83.40
66928;DHT22;59882;45.624;11.698;2023-05-02T03:05:18;13.90;83.70
66928;DHT22;59882;45.624;11.698;2023-05-02T03:07:45;13.90;83.90
66928;DHT22;59882;45.624;11.698;2023-05-02T03:10:10;13.90;83.60
66928;DHT22;59882;45.624;11.698;2023-05-02T03:12:36;13.90;83.30
66928;DHT22;59882;45.624;11.698;2023-05-02T03:18:12;13.90;83.00
66928;DHT22;59882;45.624;11.698;2023-05-02T03:20:38;13.90;83.30
66928;DHT22;59882;45.624;11.698;2023-05-02T03:23:04;13.90;83.40
66928;DHT22;59882;45.624;11.698;2023-05-02T03:25:29;13.90;83.20
66928;DHT22;59882;45.624;11.698;2023-05-02T03:27:56;13.90;83.10
66928;DHT22;59882;45.624;11.698;2023-05-02T03:30:22;13.90;83.00
66928;DHT22;59882;45.624;11.698;2023-05-02T03:32:48;14.00;82.90
66928;DHT22;59882;45.624;11.698;2023-05-02T03:35:14;14.00;83.10
66928;DHT22;59882;45.624;11.698;2023-05-02T03:37:39;14.00;83.20
66928;DHT22;59882;45.624;11.698;2023-05-02T03:40:05;14.00;83.40
66928;DHT22;59882;45.624;11.698;2023-05-02T03:42:33;14.00;83.50
66928;DHT22;59882;45.624;11.698;2023-05-02T03:45:05;14.00;83.60
66928;DHT22;59882;45.624;11.698;2023-05-02T03:47:30;14.00;83.60
66928;DHT22;59882;45.624;11.698;2023-05-02T03:49:56;13.90;83.60
66928;DHT22;59882;45.624;11.698;2023-05-02T03:52:22;13.90;83.70
66928;DHT22;59882;45.624;11.698;2023-05-02T03:54:49;13.90;83.90
66928;DHT22;59882;45.624;11.698;2023-05-02T03:57:14;13.90;84.30
66928;DHT22;59882;45.624;11.698;2023-05-02T03:59:40;13.80;84.30
66928;DHT22;59882;45.624;11.698;2023-05-02T04:02:07;13.80;84.40
66928;DHT22;59882;45.624;11.698;2023-05-02T04:04:33;13.70;84.20
66928;DHT22;59882;45.624;11.698;2023-05-02T04:06:59;13.80;84.30
66928;DHT22;59882;45.624;11.698;2023-05-02T04:09:24;13.70;84.30
66928;DHT22;59882;45.624;11.698;2023-05-02T04:11:50;13.70;84.30
66928;DHT22;59882;45.624;11.698;2023-05-02T04:14:16;13.80;84.50
66928;DHT22;59882;45.624;11.698;2023-05-02T04:16:47;13.70;84.40
66928;DHT22;59882;45.624;11.698;2023-05-02T04:19:13;13.70;84.40
66928;DHT22;59882;45.624;11.698;2023-05-02T04:21:38;13.70;84.40
66928;DHT22;59882;45.624;11.698;2023-05-02T04:24:04;13.70;84.40
66928;DHT22;59882;45.624;11.698;2023-05-02T04:26:30;13.70;84.50
66928;DHT22;59882;45.624;11.698;2023-05-02T04:28:55;13.70;84.60
66928;DHT22;59882;45.624;11.698;2023-05-02T04:31:21;13.70;84.50
66928;DHT22;59882;45.624;11.698;2023-05-02T04:33:47;13.70;84.50
66928;DHT22;59882;45.624;11.698;2023-05-02T04:36:15;13.70;84.50
66928;DHT22;59882;45.624;11.698;2023-05-02T04:38:41;13.60;84.50
66928;DHT22;59882;45.624;11.698;2023-05-02T04:41:06;13.70;84.60
66928;DHT22;59882;45.624;11.698;2023-05-02T04:43:32;13.70;84.50
66928;DHT22;59882;45.624;11.698;2023-05-02T04:45:58;13.70;84.50
66928;DHT22;59882;45.624;11.698;2023-05-02T04:48:23;13.70;84.50
66928;DHT22;59882;45.624;11.698;2023-05-02T04:50:51;13.70;84.50
66928;DHT22;59882;45.624;11.698;2023-05-02T04:53:19;13.70;84.30
66928;DHT22;59882;45.624;11.698;2023-05-02T04:55:45;13.70;84.30
66928;DHT22;59882;45.624;11.698;2023-05-02T04:58:11;13.80;84.00
66928;DHT22;59882;45.624;11.698;2023-05-02T05:00:37;13.70;83.80
66928;DHT22;59882;45.624;11.698;2023-05-02T05:03:03;13.90;83.80
66928;DHT22;59882;45.624;11.698;2023-05-02T05:05:28;13.90;83.90
66928;DHT22;59882;45.624;11.698;2023-05-02T05:07:54;13.90;83.80
66928;DHT22;59882;45.624;11.698;2023-05-02T05:10:19;13.90;83.90
66928;DHT22;59882;45.624;11.698;2023-05-02T05:12:45;13.90;84.30
66928;DHT22;59882;45.624;11.698;2023-05-02T05:15:11;13.90;84.30
66928;DHT22;59882;45.624;11.698;2023-05-02T05:17:36;14.00;83.70
66928;DHT22;59882;45.624;11.698;2023-05-02T05:20:02;14.00;83.90
66928;DHT22;59882;45.624;11.698;2023-05-02T05:22:28;14.00;84.30
66928;DHT22;59882;45.624;11.698;2023-05-02T05:24:54;14.00;84.10
66928;DHT22;59882;45.624;11.698;2023-05-02T05:27:20;14.00;83.90
66928;DHT22;59882;45.624;11.698;2023-05-02T05:29:46;14.10;83.90
66928;DHT22;59882;45.624;11.698;2023-05-02T05:32:11;14.10;84.00
66928;DHT22;59882;45.624;11.698;2023-05-02T05:34:37;14.10;84.40
66928;DHT22;59882;45.624;11.698;2023-05-02T05:37:03;14.00;84.30
66928;DHT22;59882;45.624;11.698;2023-05-02T05:39:29;14.10;84.30
66928;DHT22;59882;45.624;11.698;2023-05-02T05:41:55;14.10;84.10
66928;DHT22;59882;45.624;11.698;2023-05-02T05:44:21;14.10;84.20
66928;DHT22;59882;45.624;11.698;2023-05-02T05:46:47;14.10;84.20
66928;DHT22;59882;45.624;11.698;2023-05-02T05:49:15;14.20;84.20
66928;DHT22;59882;45.624;11.698;2023-05-02T05:51:41;14.20;83.90
66928;DHT22;59882;45.624;11.698;2023-05-02T05:54:06;14.30;84.00
66928;DHT22;59882;45.624;11.698;2023-05-02T05:56:32;14.30;83.90
66928;DHT22;59882;45.624;11.698;2023-05-02T05:58:58;14.30;83.70
66928;DHT22;59882;45.624;11.698;2023-05-02T06:01:23;14.40;83.70
66928;DHT22;59882;45.624;11.698;2023-05-02T06:03:49;14.40;83.70
66928;DHT22;59882;45.624;11.698;2023-05-02T06:06:14;14.40;83.70
66928;DHT22;59882;45.624;11.698;2023-05-02T06:08:41;14.40;83.50
66928;DHT22;59882;45.624;11.698;2023-05-02T06:11:09;14.40;83.40
66928;DHT22;59882;45.624;11.698;2023-05-02T06:13:36;14.40;83.30
66928;DHT22;59882;45.624;11.698;2023-05-02T06:16:02;14.40;83.40
66928;DHT22;59882;45.624;11.698;2023-05-02T06:18:28;14.40;83.70
66928;DHT22;59882;45.624;11.698;2023-05-02T06:20:53;14.50;83.50
66928;DHT22;59882;45.624;11.698;2023-05-02T06:23:19;14.50;83.80
66928;DHT22;59882;45.624;11.698;2023-05-02T06:25:45;14.50;83.50
66928;DHT22;59882;45.624;11.698;2023-05-02T06:28:10;14.50;83.50
66928;DHT22;59882;45.624;11.698;2023-05-02T06:30:36;14.50;83.50
66928;DHT22;59882;45.624;11.698;2023-05-02T06:33:04;14.50;83.30
66928;DHT22;59882;45.624;11.698;2023-05-02T06:35:30;14.50;83.40
66928;DHT22;59882;45.624;11.698;2023-05-02T06:37:56;14.50;83.40
66928;DHT22;59882;45.624;11.698;2023-05-02T06:40:21;14.50;83.40
66928;DHT22;59882;45.624;11.698;2023-05-02T06:42:47;14.60;83.20
66928;DHT22;59882;45.624;11.698;2023-05-02T06:45:13;14.60;83.20
66928;DHT22;59882;45.624;11.698;2023-05-02T06:47:38;14.70;83.10
66928;DHT22;59882;45.624;11.698;2023-05-02T06:50:04;14.70;83.00
66928;DHT22;59882;45.624;11.698;2023-05-02T06:52:30;14.80;82.80
66928;DHT22;59882;45.624;11.698;2023-05-02T06:54:56;14.80;82.60
66928;DHT22;59882;45.624;11.698;2023-05-02T06:57:23;14.90;82.60
66928;DHT22;59882;45.624;11.698;2023-05-02T06:59:49;14.90;82.80
66928;DHT22;59882;45.624;11.698;2023-05-02T07:02:14;14.90;82.80
66928;DHT22;59882;45.624;11.698;2023-05-02T07:04:40;14.90;83.00
66928;DHT22;59882;45.624;11.698;2023-05-02T07:07:05;14.90;83.20
66928;DHT22;59882;45.624;11.698;2023-05-02T07:09:31;14.90;82.70
66928;DHT22;59882;45.624;11.698;2023-05-02T07:11:57;14.90;82.70
66928;DHT22;59882;45.624;11.698;2023-05-02T07:14:23;14.90;82.50
66928;DHT22;59882;45.624;11.698;2023-05-02T07:16:48;14.90;82.40
66928;DHT22;59882;45.624;11.698;2023-05-02T07:19:14;14.90;82.20
66928;DHT22;59882;45.624;11.698;2023-05-02T07:21:40;14.90;82.30
66928;DHT22;59882;45.624;11.698;2023-05-02T07:24:05;15.00;82.50
66928;DHT22;59882;45.624;11.698;2023-05-02T07:26:31;15.00;82.40
66928;DHT22;59882;45.624;11.698;2023-05-02T07:28:57;15.00;82.30
66928;DHT22;59882;45.624;11.698;2023-05-02T07:31:22;15.10;82.30
66928;DHT22;59882;45.624;11.698;2023-05-02T07:33:48;15.10;82.40
66928;DHT22;59882;45.624;11.698;2023-05-02T07:36:13;15.10;82.20
66928;DHT22;59882;45.624;11.698;2023-05-02T07:38:39;15.20;82.50
66928;DHT22;59882;45.624;11.698;2023-05-02T07:41:05;15.10;82.00
66928;DHT22;59882;45.624;11.698;2023-05-02T07:43:30;15.20;81.80
66928;DHT22;59882;45.624;11.698;2023-05-02T07:45:56;15.20;81.80
66928;DHT22;59882;45.624;11.698;2023-05-02T07:48:22;15.20;82.10
66928;DHT22;59882;45.624;11.698;2023-05-02T07:50:47;15.20;82.20
66928;DHT22;59882;45.624;11.698;2023-05-02T07:53:13;15.30;82.20
66928;DHT22;59882;45.624;11.698;2023-05-02T07:55:38;15.30;82.20
66928;DHT22;59882;45.624;11.698;2023-05-02T07:58:04;15.30;82.40
66928;DHT22;59882;45.624;11.698;2023-05-02T08:00:30;15.40;82.40
66928;DHT22;59882;45.624;11.698;2023-05-02T08:02:55;15.40;82.60
66928;DHT22;59882;45.624;11.698;2023-05-02T08:05:21;15.40;82.40
66928;DHT22;59882;45.624;11.698;2023-05-02T08:07:47;15.40;82.20
66928;DHT22;59882;45.624;11.698;2023-05-02T08:10:13;15.50;82.50
66928;DHT22;59882;45.624;11.698;2023-05-02T08:12:39;15.50;82.20
66928;DHT22;59882;45.624;11.698;2023-05-02T08:15:10;15.60;81.80
66928;DHT22;59882;45.624;11.698;2023-05-02T08:17:36;15.60;81.60
66928;DHT22;59882;45.624;11.698;2023-05-02T08:20:02;15.60;81.70
66928;DHT22;59882;45.624;11.698;2023-05-02T08:22:27;15.70;81.50
66928;DHT22;59882;45.624;11.698;2023-05-02T08:24:53;15.70;81.40
66928;DHT22;59882;45.624;11.698;2023-05-02T08:27:18;15.70;81.40
66928;DHT22;59882;45.624;11.698;2023-05-02T08:29:44;15.70;81.60
66928;DHT22;59882;45.624;11.698;2023-05-02T08:32:10;15.80;81.40
66928;DHT22;59882;45.624;11.698;2023-05-02T08:34:36;15.80;81.50
66928;DHT22;59882;45.624;11.698;2023-05-02T08:37:07;15.90;82.00
66928;DHT22;59882;45.624;11.698;2023-05-02T08:39:32;16.00;81.50
66928;DHT22;59882;45.624;11.698;2023-05-02T08:41:58;16.00;80.90
66928;DHT22;59882;45.624;11.698;2023-05-02T08:44:23;16.10;80.70
66928;DHT22;59882;45.624;11.698;2023-05-02T08:46:50;16.10;80.60
66928;DHT22;59882;45.624;11.698;2023-05-02T08:49:17;16.10;80.50
66928;DHT22;59882;45.624;11.698;2023-05-02T08:51:44;16.20;80.60
66928;DHT22;59882;45.624;11.698;2023-05-02T08:54:10;16.20;81.10
66928;DHT22;59882;45.624;11.698;2023-05-02T08:56:41;16.30;80.60
66928;DHT22;59882;45.624;11.698;2023-05-02T08:59:06;16.30;80.20
66928;DHT22;59882;45.624;11.698;2023-05-02T09:01:33;16.40;79.90
66928;DHT22;59882;45.624;11.698;2023-05-02T09:03:59;16.40;80.30
66928;DHT22;59882;45.624;11.698;2023-05-02T09:06:26;16.50;80.10
66928;DHT22;59882;45.624;11.698;2023-05-02T09:08:52;16.50;79.80
66928;DHT22;59882;45.624;11.698;2023-05-02T09:11:18;16.60;79.90
66928;DHT22;59882;45.624;11.698;2023-05-02T09:13:49;16.60;79.40
66928;DHT22;59882;45.624;11.698;2023-05-02T09:16:21;16.70;79.50
66928;DHT22;59882;45.624;11.698;2023-05-02T09:18:58;16.70;79.10
66928;DHT22;59882;45.624;11.698;2023-05-02T09:21:26;16.80;79.70
66928;DHT22;59882;45.624;11.698;2023-05-02T09:23:59;16.80;79.60
66928;DHT22;59882;45.624;11.698;2023-05-02T09:26:29;16.80;79.90
66928;DHT22;59882;45.624;11.698;2023-05-02T09:28:57;16.80;80.30
66928;DHT22;59882;45.624;11.698;2023-05-02T09:31:25;16.80;80.30
66928;DHT22;59882;45.624;11.698;2023-05-02T09:33:52;16.90;80.40
66928;DHT22;59882;45.624;11.698;2023-05-02T09:36:19;16.90;80.50
66928;DHT22;59882;45.624;11.698;2023-05-02T09:38:47;17.00;79.80
66928;DHT22;59882;45.624;11.698;2023-05-02T09:41:13;17.00;80.10
66928;DHT22;59882;45.624;11.698;2023-05-02T09:43:40;17.00;79.80
66928;DHT22;59882;45.624;11.698;2023-05-02T09:46:07;17.00;79.10
66928;DHT22;59882;45.624;11.698;2023-05-02T09:48:56;17.00;79.10
66928;DHT22;59882;45.624;11.698;2023-05-02T09:51:25;16.90;79.10
66928;DHT22;59882;45.624;11.698;2023-05-02T09:53:52;16.90;79.00
66928;DHT22;59882;45.624;11.698;2023-05-02T09:56:18;16.80;78.80
66928;DHT22;59882;45.624;11.698;2023-05-02T09:58:43;16.80;79.00
66928;DHT22;59882;45.624;11.698;2023-05-02T10:01:18;16.80;78.90
66928;DHT22;59882;45.624;11.698;2023-05-02T10:03:47;16.90;79.40
66928;DHT22;59882;45.624;11.698;2023-05-02T10:06:17;16.90;79.80
66928;DHT22;59882;45.624;11.698;2023-05-02T10:08:44;16.90;79.00
66928;DHT22;59882;45.624;11.698;2023-05-02T10:11:12;16.90;79.70
66928;DHT22;59882;45.624;11.698;2023-05-02T10:13:39;16.90;79.60
66928;DHT22;59882;45.624;11.698;2023-05-02T10:16:07;17.00;79.60
66928;DHT22;59882;45.624;11.698;2023-05-02T10:18:57;17.00;79.00
66928;DHT22;59882;45.624;11.698;2023-05-02T10:21:26;17.00;78.80
66928;DHT22;59882;45.624;11.698;2023-05-02T10:23:52;17.00;79.60
66928;DHT22;59882;45.624;11.698;2023-05-02T10:26:19;16.90;79.80
66928;DHT22;59882;45.624;11.698;2023-05-02T10:28:48;17.00;79.90
66928;DHT22;59882;45.624;11.698;2023-05-02T10:31:15;17.10;79.50
66928;DHT22;59882;45.624;11.698;2023-05-02T10:33:42;17.20;79.60
66928;DHT22;59882;45.624;11.698;2023-05-02T10:36:10;17.30;79.00
66928;DHT22;59882;45.624;11.698;2023-05-02T10:38:38;17.40;78.80
66928;DHT22;59882;45.624;11.698;2023-05-02T10:41:24;17.40;79.30
66928;DHT22;59882;45.624;11.698;2023-05-02T10:43:52;17.50;78.50
66928;DHT22;59882;45.624;11.698;2023-05-02T10:46:37;17.60;78.40
66928;DHT22;59882;45.624;11.698;2023-05-02T10:49:09;17.80;77.90
66928;DHT22;59882;45.624;11.698;2023-05-02T10:51:37;17.90;78.00
66928;DHT22;59882;45.624;11.698;2023-05-02T10:59:38;18.00;77.90
66928;DHT22;59882;45.624;11.698;2023-05-02T11:07:27;18.00;76.40
66928;DHT22;59882;45.624;11.698;2023-05-02T11:12:48;18.00;75.00
66928;DHT22;59882;45.624;11.698;2023-05-02T11:20:32;18.30;76.00
66928;DHT22;59882;45.624;11.698;2023-05-02T11:25:47;18.50;76.10
66928;DHT22;59882;45.624;11.698;2023-05-02T11:31:05;18.60;75.30
66928;DHT22;59882;45.624;11.698;2023-05-02T11:33:31;18.50;74.10
66928;DHT22;59882;45.624;11.698;2023-05-02T11:35:57;18.50;74.80
66928;DHT22;59882;45.624;11.698;2023-05-02T11:38:24;18.40;75.00
66928;DHT22;59882;45.624;11.698;2023-05-02T11:40:55;18.30;75.70
66928;DHT22;59882;45.624;11.698;2023-05-02T11:43:22;18.00;75.20
66928;DHT22;59882;45.624;11.698;2023-05-02T11:45:50;17.90;75.70
66928;DHT22;59882;45.624;11.698;2023-05-02T11:48:17;17.90;76.00
66928;DHT22;59882;45.624;11.698;2023-05-02T11:50:45;17.90;76.20
66928;DHT22;59882;45.624;11.698;2023-05-02T11:53:19;17.90;76.00
66928;DHT22;59882;45.624;11.698;2023-05-02T11:55:54;18.00;76.30
66928;DHT22;59882;45.624;11.698;2023-05-02T11:58:24;18.00;76.60
66928;DHT22;59882;45.624;11.698;2023-05-02T12:00:52;18.10;76.60
66928;DHT22;59882;45.624;11.698;2023-05-02T12:03:23;18.10;76.40
66928;DHT22;59882;45.624;11.698;2023-05-02T12:05:49;18.20;76.90
66928;DHT22;59882;45.624;11.698;2023-05-02T12:08:26;18.30;76.70
66928;DHT22;59882;45.624;11.698;2023-05-02T12:10:53;18.30;76.50
66928;DHT22;59882;45.624;11.698;2023-05-02T12:13:21;18.40;75.50
66928;DHT22;59882;45.624;11.698;2023-05-02T12:15:48;18.40;75.10
66928;DHT22;59882;45.624;11.698;2023-05-02T12:18:14;18.50;73.20
66928;DHT22;59882;45.624;11.698;2023-05-02T12:20:41;18.60;72.30
66928;DHT22;59882;45.624;11.698;2023-05-02T12:23:07;18.60;73.60
66928;DHT22;59882;45.624;11.698;2023-05-02T12:25:38;18.70;73.00
66928;DHT22;59882;45.624;11.698;2023-05-02T12:28:04;18.80;72.90
66928;DHT22;59882;45.624;11.698;2023-05-02T12:30:30;18.80;72.70
66928;DHT22;59882;45.624;11.698;2023-05-02T12:32:59;18.80;73.10
66928;DHT22;59882;45.624;11.698;2023-05-02T12:35:26;18.90;72.90
66928;DHT22;59882;45.624;11.698;2023-05-02T12:37:52;18.90;73.10
66928;DHT22;59882;45.624;11.698;2023-05-02T12:40:18;18.90;72.90
66928;DHT22;59882;45.624;11.698;2023-05-02T12:43:03;19.10;73.70
66928;DHT22;59882;45.624;11.698;2023-05-02T12:45:31;19.10;74.00
66928;DHT22;59882;45.624;11.698;2023-05-02T12:48:24;19.10;74.50
66928;DHT22;59882;45.624;11.698;2023-05-02T12:50:51;19.20;73.40
66928;DHT22;59882;45.624;11.698;2023-05-02T12:53:45;19.30;73.30
66928;DHT22;59882;45.624;11.698;2023-05-02T12:56:13;19.30;73.30
66928;DHT22;59882;45.624;11.698;2023-05-02T12:58:43;19.40;73.00
66928;DHT22;59882;45.624;11.698;2023-05-02T13:01:09;19.40;72.90
66928;DHT22;59882;45.624;11.698;2023-05-02T13:03:35;19.30;71.70
66928;DHT22;59882;45.624;11.698;2023-05-02T13:06:01;19.30;72.90
66928;DHT22;59882;45.624;11.698;2023-05-02T13:08:27;19.30;72.70
66928;DHT22;59882;45.624;11.698;2023-05-02T13:10:52;19.40;72.60
66928;DHT22;59882;45.624;11.698;2023-05-02T13:13:18;19.40;72.20
66928;DHT22;59882;45.624;11.698;2023-05-02T13:15:44;19.40;71.70
66928;DHT22;59882;45.624;11.698;2023-05-02T13:18:09;19.40;70.80
66928;DHT22;59882;45.624;11.698;2023-05-02T13:20:35;19.40;70.90
66928;DHT22;59882;45.624;11.698;2023-05-02T13:23:01;19.30;70.80
66928;DHT22;59882;45.624;11.698;2023-05-02T13:25:26;19.40;70.90
66928;DHT22;59882;45.624;11.698;2023-05-02T13:27:52;19.40;69.80
66928;DHT22;59882;45.624;11.698;2023-05-02T13:30:18;19.40;68.90
66928;DHT22;59882;45.624;11.698;2023-05-02T13:32:43;19.20;69.70
66928;DHT22;59882;45.624;11.698;2023-05-02T13:35:09;19.20;69.70
66928;DHT22;59882;45.624;11.698;2023-05-02T13:37:38;19.00;69.30
66928;DHT22;59882;45.624;11.698;2023-05-02T13:40:05;18.90;69.40
66928;DHT22;59882;45.624;11.698;2023-05-02T13:42:30;18.70;70.30
66928;DHT22;59882;45.624;11.698;2023-05-02T13:44:56;18.70;70.50
66928;DHT22;59882;45.624;11.698;2023-05-02T13:47:22;18.70;71.10
66928;DHT22;59882;45.624;11.698;2023-05-02T13:49:47;18.70;71.00
66928;DHT22;59882;45.624;11.698;2023-05-02T13:52:13;18.70;71.30
66928;DHT22;59882;45.624;11.698;2023-05-02T13:54:39;18.70;71.30
66928;DHT22;59882;45.624;11.698;2023-05-02T13:57:04;18.60;70.80
66928;DHT22;59882;45.624;11.698;2023-05-02T13:59:30;18.60;71.90
66928;DHT22;59882;45.624;11.698;2023-05-02T14:01:55;18.60;72.60
66928;DHT22;59882;45.624;11.698;2023-05-02T14:04:21;18.60;72.20
66928;DHT22;59882;45.624;11.698;2023-05-02T14:06:47;18.60;71.80
66928;DHT22;59882;45.624;11.698;2023-05-02T14:09:12;18.60;71.60
66928;DHT22;59882;45.624;11.698;2023-05-02T14:11:39;18.60;72.00
66928;DHT22;59882;45.624;11.698;2023-05-02T14:14:05;18.50;71.80
66928;DHT22;59882;45.624;11.698;2023-05-02T14:16:30;18.50;71.60
66928;DHT22;59882;45.624;11.698;2023-05-02T14:18:56;18.40;71.10
66928;DHT22;59882;45.624;11.698;2023-05-02T14:21:22;18.40;70.80
66928;DHT22;59882;45.624;11.698;2023-05-02T14:23:47;18.40;71.10
66928;DHT22;59882;45.624;11.698;2023-05-02T14:26:13;18.40;71.30
66928;DHT22;59882;45.624;11.698;2023-05-02T14:28:39;18.30;71.50
66928;DHT22;59882;45.624;11.698;2023-05-02T14:31:05;18.30;71.40
66928;DHT22;59882;45.624;11.698;2023-05-02T14:33:31;18.30;71.50
66928;DHT22;59882;45.624;11.698;2023-05-02T14:35:57;18.30;71.40
66928;DHT22;59882;45.624;11.698;2023-05-02T14:38:22;18.30;71.50
66928;DHT22;59882;45.624;11.698;2023-05-02T14:40:48;18.20;71.90
66928;DHT22;59882;45.624;11.698;2023-05-02T14:43:13;18.20;72.50
66928;DHT22;59882;45.624;11.698;2023-05-02T14:45:39;18.20;72.40
66928;DHT22;59882;45.624;11.698;2023-05-02T14:48:05;18.20;72.40
66928;DHT22;59882;45.624;11.698;2023-05-02T14:50:32;18.10;72.50
66928;DHT22;59882;45.624;11.698;2023-05-02T14:52:57;18.10;72.60
66928;DHT22;59882;45.624;11.698;2023-05-02T14:55:23;18.10;72.60
66928;DHT22;59882;45.624;11.698;2023-05-02T14:57:48;18.10;72.80
66928;DHT22;59882;45.624;11.698;2023-05-02T15:00:15;18.10;72.60
66928;DHT22;59882;45.624;11.698;2023-05-02T15:02:41;18.00;72.30
66928;DHT22;59882;45.624;11.698;2023-05-02T15:05:06;18.00;72.40
66928;DHT22;59882;45.624;11.698;2023-05-02T15:07:37;17.90;72.50
66928;DHT22;59882;45.624;11.698;2023-05-02T15:10:04;17.90;72.70
66928;DHT22;59882;45.624;11.698;2023-05-02T15:12:30;18.00;72.70
66928;DHT22;59882;45.624;11.698;2023-05-02T15:14:56;18.00;72.90
66928;DHT22;59882;45.624;11.698;2023-05-02T15:17:21;18.10;73.10
66928;DHT22;59882;45.624;11.698;2023-05-02T15:19:47;18.00;72.70
66928;DHT22;59882;45.624;11.698;2023-05-02T15:22:13;18.00;72.90
66928;DHT22;59882;45.624;11.698;2023-05-02T15:24:40;18.00;73.10
66928;DHT22;59882;45.624;11.698;2023-05-02T15:27:06;18.00;73.00
66928;DHT22;59882;45.624;11.698;2023-05-02T15:29:33;18.00;73.20
66928;DHT22;59882;45.624;11.698;2023-05-02T15:31:59;18.00;73.20
66928;DHT22;59882;45.624;11.698;2023-05-02T15:34:25;18.00;72.80
66928;DHT22;59882;45.624;11.698;2023-05-02T15:36:51;17.90;72.80
66928;DHT22;59882;45.624;11.698;2023-05-02T15:39:17;17.90;72.60
66928;DHT22;59882;45.624;11.698;2023-05-02T15:41:43;17.90;72.60
66928;DHT22;59882;45.624;11.698;2023-05-02T15:44:12;17.90;72.60
66928;DHT22;59882;45.624;11.698;2023-05-02T15:46:38;17.90;72.50
66928;DHT22;59882;45.624;11.698;2023-05-02T15:49:05;17.80;72.80
66928;DHT22;59882;45.624;11.698;2023-05-02T15:51:31;17.80;73.00
66928;DHT22;59882;45.624;11.698;2023-05-02T15:53:56;17.70;73.60
66928;DHT22;59882;45.624;11.698;2023-05-02T15:56:22;17.70;73.30
66928;DHT22;59882;45.624;11.698;2023-05-02T15:58:48;17.60;73.00